ヘルシンキ・ヴァンター国際空港の過去48時間の天気

ヘルシンキ・ヴァンター国際空港 (Helsinki-Vantaa)

現在時刻: 11/19 08:18 EET (11/19 06:18 UTC) 以下の時間は現地時間です。

過去48時間のMETAR気象情報
時間 風向 風速(m/s) 視程 気温(℃) 湿度(%) 気圧(hPa) 天気現象
19 07:50 南東 6 10km以上 7 87 1020
19 07:20 東南東 5 10km以上 7 93 1020
19 06:50 東南東 5 10km以上 7 93 1020
19 06:20 東南東 6 10km以上 7 93 1020
19 05:50 東南東 6 10km以上 7 93 1020
19 05:20 東南東 6 8000m 7 93 1020 弱い雨
19 04:50 東南東 6 7000m 7 93 1020 弱い雨
19 04:20 東南東 6 10km以上 7 93 1020 弱い雨
19 03:50 東南東 6 8000m 6 100 1020 弱い雨
19 03:20 6 8000m 6 100 1020 弱い雨
19 02:50 6 8000m 6 100 1020 弱い雨
19 02:20 4 10km以上 7 93 1020 弱い雨
19 01:50 5 6000m 6 100 1021 弱い霧雨
19 01:20 南東 5 4000m 7 93 1021 弱い霧雨
19 00:50 東南東 6 4000m 7 93 1021 弱い霧雨
19 00:20 6 3500m 7 93 1021 弱い霧雨
18 23:50 6 3500m 6 100 1021 弱い霧雨
18 23:20 6 3500m 6 100 1021 弱い霧雨
18 22:50 6 3500m 6 93 1021 弱い霧雨
18 22:20 6 4000m 6 93 1021 弱い霧雨
18 21:50 6 5000m 5 100 1022 弱い霧雨
18 21:20 5 9000m 6 93 1022 弱い霧雨
18 20:50 6 10km以上 6 93 1022
18 20:20 6 10km以上 5 100 1022
18 19:50 6 10km以上 5 100 1022
18 19:20 5 9000m 6 93 1023
18 18:50 5 8000m 6 93 1023
18 18:20 東北東 5 8000m 6 93 1023
18 17:50 東北東 6 7000m 5 100 1023
18 17:20 東北東 5 6000m 5 100 1023
18 16:50 東北東 6 6000m 5 100 1023
18 16:20 4 5000m 5 100 1024 もや
18 15:50 東北東 4 5000m 5 100 1023 もや
18 15:20 4 6000m 5 100 1024
18 14:50 4 6000m 5 100 1024
18 14:20 4 6000m 5 100 1024
18 13:50 4 7000m 6 93 1024
18 13:20 3 8000m 6 93 1024
18 12:50 4 8000m 6 93 1024
18 12:20 東南東 5 8000m 6 93 1024
18 11:50 東南東 3 1500m 5 100 1024 もや
18 11:20 東南東 4 800m 5 100 1024
18 10:50 東南東 2 1000m 5 100 1024 もや
18 10:20 2 200m 3 100 1024
18 09:50 2 400m 2 93 1024
18 09:20 南東 2 800m 2 93 1024 部分霧
18 08:50 2 10km以上 0 100 1023
18 08:20 不定 1 10km以上 1 93 1023
18 07:50 不定 1 10km以上 1 100 1023
18 07:20 不定 1 10km以上 1 93 1023
18 06:50 不定 1 10km以上 2 93 1023
18 06:20 不定 1 10km以上 3 100 1023
18 05:50 南南西 3 10km以上 5 87 1022
18 05:20 南南西 4 10km以上 5 87 1022
18 04:50 南南西 3 10km以上 6 87 1022
18 04:20 南南西 3 10km以上 7 81 1022
18 03:50 南西 4 10km以上 7 81 1022
18 03:20 南西 4 10km以上 7 81 1022
18 02:50 南西 4 10km以上 7 81 1022
18 02:20 南南西 4 10km以上 7 81 1022
18 01:50 南南西 4 10km以上 7 87 1022
18 01:20 南南西 5 10km以上 7 87 1021
18 00:50 南南西 4 10km以上 8 87 1021
18 00:20 南南西 4 10km以上 7 93 1021
17 23:50 南南西 4 10km以上 8 87 1021
17 23:20 5 10km以上 8 87 1021
17 22:50 南南西 4 10km以上 8 87 1021
17 22:20 南南西 4 10km以上 7 93 1020
17 21:50 南南西 3 10km以上 7 93 1020 弱い霧雨
17 21:20 南南西 4 10km以上 7 93 1020
17 20:50 南南西 4 10km以上 8 87 1019
17 20:20 5 10km以上 8 87 1019
17 19:50 5 10km以上 8 87 1019
17 19:20 6 10km以上 8 87 1019
17 18:50 6 10km以上 8 87 1019
17 18:20 7 10km以上 8 87 1018
17 17:50 南南西 7 10km以上 8 87 1018
17 17:20 7 10km以上 8 87 1018 弱い霧雨
17 16:50 7 10km以上 8 87 1018 弱い霧雨
17 16:20 8 10km以上 8 87 1018 弱い霧雨
17 15:50 7 10km以上 8 87 1018 弱い霧雨
17 15:20 6 10km以上 8 87 1018 弱い霧雨
17 14:50 6 10km以上 8 87 1018 弱い霧雨
17 14:20 6 10km以上 8 81 1018
17 13:50 7 10km以上 8 81 1017
17 13:20 5 10km以上 8 81 1017
17 12:50 5 10km以上 8 87 1017
17 12:20 南南西 7 10km以上 8 87 1017
17 11:50 南南西 5 10km以上 8 87 1017
17 11:20 南南西 6 10km以上 8 93 1017
17 10:50 南南西 6 10km以上 8 93 1016
17 10:20 6 7000m 8 93 1016 弱い雨
17 09:50 6 4000m 8 93 1016 もや
17 09:20 5 3000m 7 100 1015 もや
17 08:50 南南東 5 2500m 7 100 1015 弱い霧雨 弱い雨 もや
17 08:20 南南東 4 2000m 6 100 1015 もや
EFHK 190550Z 13012KT 100V170 9999 SCT010 OVC019 07/05 Q1020 TEMPO BKN012
EFHK 190520Z 12010KT 090V160 9999 BKN008 OVC024 07/06 Q1020 BECMG SCT008 OVC025
EFHK 190450Z 12010KT 9999 BKN007 OVC025 07/06 Q1020 BECMG SCT006 OVC025
EFHK 190420Z 12011KT 9999 BKN006 07/06 Q1020 BECMG SCT006 BKN020
EFHK 190350Z 12012KT 9999 BKN006 07/06 Q1020 BECMG SCT006 BKN020
EFHK 190320Z 12011KT 8000 -RA BKN005 07/06 Q1020 BECMG SCT005 BKN020
EFHK 190250Z 12012KT 7000 -RA BKN005 07/06 Q1020 BECMG 9999
EFHK 190220Z 12012KT 9999 -RA BKN005 07/06 Q1020 NOSIG
EFHK 190150Z 11011KT 8000 -RA BKN005 06/06 Q1020 NOSIG
EFHK 190120Z 10011KT 080V140 8000 -RA BKN005 06/06 Q1020 TEMPO BKN004
EFHK 190050Z 10011KT 8000 -RA BKN006 06/06 Q1020 BECMG SCT007 BKN020
EFHK 190020Z 10008KT 9999 -RA SCT006 BKN020 07/06 Q1020 NOSIG
EFHK 182350Z 10009KT 6000 -DZ BKN005 BKN025 06/06 Q1021 BECMG 9999 BKN015
EFHK 182320Z 13010KT 4000 -DZ OVC004 07/06 Q1021 BECMG OVC005
EFHK 182250Z 11011KT 080V140 4000 -DZ OVC003 07/06 Q1021 NOSIG
EFHK 182220Z 10012KT 040V140 3500 -DZ OVC003 07/06 Q1021 NOSIG
EFHK 182150Z 10011KT 3500 -DZ OVC003 06/06 Q1021 NOSIG
EFHK 182120Z 09011KT 040V110 3500 -DZ OVC003 06/06 Q1021 NOSIG
EFHK 182050Z 09012KT 060V120 3500 -DZ OVC003 06/05 Q1021 BECMG 2500
EFHK 182020Z 08012KT 4000 -DZ OVC004 06/05 Q1021 BECMG 2500
EFHK 181950Z 08012KT 5000 -DZ OVC004 05/05 Q1022 TEMPO 4000
EFHK 181920Z 08010KT 9000 -DZ OVC005 06/05 Q1022 NOSIG
EFHK 181850Z 08012KT 9999 OVC005 06/05 Q1022 NOSIG
EFHK 181820Z 08012KT 9999 OVC005 05/05 Q1022 BECMG OVC004
EFHK 181750Z 08011KT 9999 OVC006 05/05 Q1022 NOSIG
EFHK 181720Z 08009KT 9000 OVC005 06/05 Q1023 NOSIG
EFHK 181650Z 08010KT 8000 OVC005 06/05 Q1023 NOSIG
EFHK 181620Z 07010KT 8000 OVC005 06/05 Q1023 NOSIG
EFHK 181550Z 07011KT 040V110 7000 OVC004 05/05 Q1023 BECMG OVC005
EFHK 181520Z 06009KT 030V100 6000 OVC004 05/05 Q1023 NOSIG
EFHK 181450Z 07011KT 020V100 6000 OVC004 05/05 Q1023 NOSIG
EFHK 181420Z 08008KT 030V110 5000 BR OVC003 05/05 Q1024 NOSIG
EFHK 181350Z 07008KT 5000 BR OVC003 05/05 Q1023 TEMPO 4000
EFHK 181320Z 08007KT 6000 OVC003 05/05 Q1024 NOSIG
EFHK 181250Z 10008KT 6000 OVC003 05/05 Q1024 BECMG 8000
EFHK 181220Z 09007KT 060V120 6000 OVC003 05/05 Q1024 NOSIG
EFHK 181150Z 09008KT 7000 OVC003 06/05 Q1024 TEMPO 8000
EFHK 181120Z 09006KT 8000 OVC005 06/05 Q1024 TEMPO OVC004
EFHK 181050Z 09007KT 060V120 8000 OVC005 06/05 Q1024 NOSIG
EFHK 181020Z 11009KT 080V150 8000 OVC004 06/05 Q1024 BECMG BKN005
EFHK 180950Z 12006KT 1500 BR OVC002 05/05 Q1024 BECMG 4000 BKN005
EFHK 180920Z 12008KT 0800 R04L/P2000N R15/1800U R22L/1400U R22R/1300D FG VV002 05/05 Q1024 TEMPO 1000 BR
EFHK 180850Z 12003KT 070V150 1000 R04L/P2000N R15/P2000N R22L/P2000N R22R/1900U BR OVC001 05/05 Q1024 TEMPO BKN004
EFHK 180820Z 09003KT 060V170 0200 R04L/0400N R15/0450U R22L/0450N R22R/0400N FG VV002 03/03 Q1024 TEMPO 0500
EFHK 180750Z 08003KT 0400 R04L/0350N R15/0600D R22L/P2000N R22R/0550N FG VV003 02/01 Q1024 TEMPO VV001
EFHK 180720Z 13004KT 0800 R04L/P2000N R15/P2000N R22L/P2000N R22R/P2000N PRFG BKN001 02/01 Q1024 TEMPO 0500
EFHK 180650Z 09003KT 050V120 9999 FEW020 00/00 Q1023 BECMG 1200 PRFG
EFHK 180620Z VRB02KT 9999 FEW020 01/00 Q1023 TEMPO 4500 BR
EFHK 180550Z VRB02KT 9999 FEW020 01/01 Q1023 NOSIG
EFHK 180520Z VRB02KT CAVOK 01/00 Q1023 TEMPO 4500 BR
EFHK 180450Z VRB02KT CAVOK 02/01 Q1023 TEMPO 4500 BR
EFHK 180420Z VRB02KT CAVOK 03/03 Q1023 NOSIG
EFHK 180350Z 21005KT 9999 FEW019 05/03 Q1022 NOSIG
EFHK 180320Z 21007KT 9999 FEW019 05/03 Q1022 NOSIG
EFHK 180250Z 21006KT 9999 BKN019 06/04 Q1022 NOSIG
EFHK 180220Z 21005KT 9999 BKN019 07/04 Q1022 NOSIG
EFHK 180150Z 23007KT 200V260 9999 BKN019 07/04 Q1022 NOSIG
EFHK 180120Z 22007KT 9999 BKN020 07/04 Q1022 NOSIG
EFHK 180050Z 23008KT 9999 BKN020 07/04 Q1022 NOSIG
EFHK 180020Z 21008KT 9999 BKN021 07/04 Q1022 NOSIG
EFHK 172350Z 21008KT 9999 BKN022 07/05 Q1022 NOSIG
EFHK 172320Z 21009KT 9999 BKN022 07/05 Q1021 NOSIG
EFHK 172250Z 21008KT 190V280 9999 BKN020 08/06 Q1021 NOSIG
EFHK 172220Z 20007KT 9999 FEW009 BKN020 07/06 Q1021 NOSIG
EFHK 172150Z 21008KT 9999 FEW009 BKN022 08/06 Q1021 NOSIG
EFHK 172120Z 19009KT 9999 FEW009 SCT011 BKN023 08/06 Q1021 NOSIG
EFHK 172050Z 21008KT 9999 FEW009 BKN011 BKN023 08/06 Q1021 NOSIG
EFHK 172020Z 21007KT 9999 FEW009 BKN011 BKN025 07/06 Q1020 NOSIG
EFHK 171950Z 20005KT 9999 -DZ BKN011 07/06 Q1020 NOSIG
EFHK 171920Z 20007KT 9999 BKN011 07/06 Q1020 NOSIG
EFHK 171850Z 20008KT 9999 BKN012 08/06 Q1019 NOSIG
EFHK 171820Z 19010KT 9999 BKN013 08/06 Q1019 NOSIG
EFHK 171750Z 19010KT 9999 FEW011 BKN014 08/06 Q1019 NOSIG
EFHK 171720Z 19012KT 9999 FEW011 BKN015 08/06 Q1019 TEMPO BKN013
EFHK 171650Z 19011KT 9999 BKN015 08/06 Q1019 NOSIG
EFHK 171620Z 19014KT 9999 BKN015 08/06 Q1018 NOSIG
EFHK 171550Z 20013KT 9999 BKN013 08/06 Q1018 TEMPO BKN015
EFHK 171520Z 19013KT 9999 -DZ BKN012 08/06 Q1018 NOSIG
EFHK 171450Z 19013KT 9999 -DZ BKN012 08/06 Q1018 NOSIG
EFHK 171420Z 19015KT 9999 -DZ BKN013 08/06 Q1018 NOSIG
EFHK 171350Z 19014KT 9999 -DZ BKN014 08/06 Q1018 NOSIG
EFHK 171320Z 18011KT 9999 -DZ FEW012 BKN015 08/06 Q1018 TEMPO BKN012
EFHK 171250Z 18012KT 9999 -DZ FEW016 BKN020 08/06 Q1018 TEMPO BKN012
EFHK 171220Z 19011KT 9999 FEW020 BKN028 08/05 Q1018 NOSIG
EFHK 171150Z 18013KT 9999 FEW020 BKN030 08/05 Q1017 NOSIG
EFHK 171120Z 19010KT 9999 FEW025 BKN035 08/05 Q1017 NOSIG
EFHK 171050Z 19009KT 9999 BKN028 08/06 Q1017 NOSIG
EFHK 171020Z 21013KT 9999 FEW016 BKN022 08/06 Q1017 NOSIG
EFHK 170950Z 20010KT 9999 FEW015 BKN035 08/06 Q1017 TEMPO BKN014
EFHK 170920Z 20012KT 9999 FEW008 SCT015 BKN045 08/07 Q1017 TEMPO BKN014
EFHK 170850Z 20011KT 9999 FEW005 BKN035 08/07 Q1016 NOSIG
EFHK 170820Z 19011KT 7000 -RA BKN003 BKN008 08/07 Q1016 BECMG 8000 SCT008 BKN040
EFHK 170750Z 19012KT 4000 BR BKN002 08/07 Q1016 BECMG 5000
EFHK 170720Z 17009KT 3000 BR BKN002 07/07 Q1015 BECMG 5000
EFHK 170650Z 15009KT 2500 -DZRA BR OVC002 07/07 Q1015 BECMG 4000
EFHK 170620Z 15008KT 2000 BR FEW001 OVC002 06/06 Q1015 BECMG 4000